Time;durP1;ratioP1;P1;durP2;ratioP2;P2;SDS_P1;SDS_P2;PMS_P1;PMS_P2;Temp;Humidity;BMP_temperature;BMP_pressure;BME280_temperature;BME280_humidity;BME280_pressure;Samples;Min_cycle;Max_cycle;Signal;HPM_P1;HPM_P2
2022/09/20 00:01:19;;;;;;;5.33;2.30;;;;;;;14.21;91.81;99186.34;1840598;77;22066;-61
2022/09/20 00:03:48;;;;;;;2.22;1.77;;;;;;;14.23;92.25;99191.53;1838022;77;21584;-60
2022/09/20 00:06:20;;;;;;;3.30;1.87;;;;;;;14.16;92.34;99191.07;1836001;77;21390;-60
2022/09/20 00:08:47;;;;;;;3.60;1.95;;;;;;;14.05;93.54;99198.84;1837126;77;20970;-61
2022/09/20 00:11:21;;;;;;;3.83;1.60;;;;;;;13.97;94.11;99198.02;1835385;76;21493;-60
2022/09/20 00:13:50;;;;;;;2.30;1.60;;;;;;;13.91;96.52;99198.90;1820352;77;21832;-60
2022/09/20 00:16:22;;;;;;;2.02;1.82;;;;;;;13.94;98.32;99203.52;1824468;77;21561;-60
2022/09/20 00:18:50;;;;;;;2.00;1.80;;;;;;;13.96;98.04;99200.78;1828546;77;21620;-60
2022/09/20 00:21:19;;;;;;;3.85;2.37;;;;;;;13.93;96.88;99197.84;1839550;77;21014;-60
2022/09/20 00:23:45;;;;;;;5.10;2.30;;;;;;;13.95;96.35;99197.75;1826489;77;21439;-61
2022/09/20 00:26:16;;;;;;;3.35;2.15;;;;;;;13.95;94.34;99193.30;1830535;77;21810;-60
2022/09/20 00:28:43;;;;;;;4.65;2.22;;;;;;;13.87;93.90;99194.28;1834307;77;21490;-60
2022/09/20 00:35:17;;;;;;;2.85;2.02;;;;;;;13.73;93.69;99195.16;1834952;77;21531;-60
2022/09/20 00:37:44;;;;;;;3.20;2.00;;;;;;;13.63;93.20;99187.42;1821786;77;21538;-60
2022/09/20 00:40:16;;;;;;;5.85;2.37;;;;;;;13.63;92.67;99191.38;1839506;77;21881;-60
2022/09/20 00:42:43;;;;;;;2.25;1.77;;;;;;;13.62;95.15;99185.27;1828619;77;21469;-61
2022/09/20 00:45:23;;;;;;;3.92;1.55;;;;;;;13.61;97.27;99186.67;1823772;77;20957;-61
2022/09/20 00:47:59;;;;;;;1.70;1.60;;;;;;;13.59;97.44;99188.56;1834899;77;21066;-62
2022/09/20 00:50:45;;;;;;;2.87;2.00;;;;;;;13.55;96.25;99191.02;1837739;77;21529;-62
2022/09/20 00:53:25;;;;;;;2.55;1.95;;;;;;;13.47;96.37;99198.11;1840206;77;21820;-60
2022/09/20 00:56:11;;;;;;;4.25;1.75;;;;;;;13.42;95.92;99188.29;1829377;77;21510;-61
2022/09/20 00:58:44;;;;;;;3.17;1.70;;;;;;;13.40;95.33;99183.09;1831742;77;21005;-61
2022/09/20 01:01:10;;;;;;;5.67;2.30;;;;;;;13.33;95.04;99189.69;1830823;77;21833;-61
2022/09/20 01:03:38;;;;;;;3.85;2.27;;;;;;;13.28;95.04;99190.88;1829988;77;21607;-61
2022/09/20 01:06:07;;;;;;;2.20;1.93;;;;;;;13.24;94.99;99189.77;1837224;77;21808;-61
2022/09/20 01:08:34;;;;;;;3.33;1.90;;;;;;;13.28;96.67;99182.97;1829712;77;21381;-61
2022/09/20 01:11:01;;;;;;;2.50;1.70;;;;;;;13.38;97.77;99185.47;1831035;77;21481;-61
2022/09/20 01:13:27;;;;;;;3.52;2.17;;;;;;;13.44;98.18;99181.95;1841592;77;21443;-61
2022/09/20 01:15:55;;;;;;;2.58;2.05;;;;;;;13.50;97.49;99183.37;1827199;77;21549;-61
2022/09/20 01:18:21;;;;;;;2.80;1.83;;;;;;;13.51;96.64;99183.77;1825093;77;22112;-61
2022/09/20 01:20:48;;;;;;;4.10;2.33;;;;;;;13.51;96.00;99181.59;1821537;77;21497;-60
2022/09/20 01:23:47;;;;;;;2.90;1.85;;;;;;;13.51;95.86;99182.92;1826601;77;21450;-60
2022/09/20 01:26:47;;;;;;;2.65;2.27;;;;;;;13.46;95.47;99177.91;1812530;77;21537;-61
2022/09/20 01:29:38;;;;;;;2.30;2.10;;;;;;;13.32;95.95;99180.09;1820429;77;20993;-60
2022/09/20 01:32:09;;;;;;;3.02;2.10;;;;;;;13.26;95.89;99180.45;1827379;77;21791;-62
2022/09/20 01:34:47;;;;;;;2.65;2.00;;;;;;;13.34;98.10;99176.05;1830965;77;21502;-59
2022/09/20 01:37:19;;;;;;;5.28;1.87;;;;;;;13.43;98.97;99180.28;1800411;77;21513;-60
2022/09/20 01:39:52;;;;;;;3.98;2.35;;;;;;;13.48;99.41;99177.81;1831246;77;21554;-61
2022/09/20 01:42:18;;;;;;;2.98;2.17;;;;;;;13.53;98.57;99181.03;1813483;77;20998;-61
2022/09/20 01:45:29;;;;;;;2.35;2.15;;;;;;;13.54;97.59;99172.14;1820654;77;21884;-60
2022/09/20 01:48:12;;;;;;;2.17;2.02;;;;;;;13.47;97.27;99169.06;1812659;77;21445;-60
2022/09/20 01:50:47;;;;;;;3.52;2.27;;;;;;;13.39;97.42;99164.70;1810991;77;21588;-60
2022/09/20 01:53:49;;;;;;;3.45;2.08;;;;;;;13.39;97.49;99166.89;1824474;77;21533;-59
2022/09/20 01:57:08;;;;;;;3.55;2.10;;;;;;;13.39;97.08;99162.94;1826446;77;21621;-59
2022/09/20 01:59:58;;;;;;;3.37;2.30;;;;;;;13.34;98.08;99165.00;1825666;77;21871;-62
2022/09/20 02:02:50;;;;;;;3.22;2.20;;;;;;;13.34;100.00;99172.08;1821124;77;21477;-60
2022/09/20 02:05:35;;;;;;;2.52;2.33;;;;;;;13.39;100.00;99177.45;1824574;77;21503;-61
2022/09/20 02:08:19;;;;;;;6.85;2.92;;;;;;;13.43;99.44;99175.48;1816730;76;21593;-62
2022/09/20 02:11:13;;;;;;;3.67;2.85;;;;;;;13.43;98.53;99173.67;1823428;77;21535;-60
2022/09/20 02:14:04;;;;;;;3.02;2.72;;;;;;;13.38;98.41;99170.47;1818340;77;21907;-62
2022/09/20 02:16:45;;;;;;;3.77;3.22;;;;;;;13.37;98.23;99171.42;1825602;77;21470;-60
2022/09/20 02:19:41;;;;;;;3.25;2.83;;;;;;;13.37;97.26;99171.88;1809441;77;21442;-61
2022/09/20 02:22:42;;;;;;;3.02;2.52;;;;;;;13.36;97.67;99171.52;1814835;77;21432;-60
2022/09/20 02:25:35;;;;;;;4.60;2.72;;;;;;;13.35;100.00;99170.64;1821708;76;21474;-60
2022/09/20 02:28:30;;;;;;;2.72;2.42;;;;;;;13.43;100.00;99179.44;1816520;77;22124;-59
2022/09/20 02:31:24;;;;;;;4.22;2.50;;;;;;;13.52;100.00;99180.16;1826776;77;21482;-61
2022/09/20 02:34:24;;;;;;;3.75;2.37;;;;;;;13.53;100.00;99175.75;1818021;77;21499;-59
2022/09/20 02:37:45;;;;;;;4.35;2.70;;;;;;;13.52;100.00;99176.20;1820226;77;21021;-63
2022/09/20 02:40:42;;;;;;;4.00;2.62;;;;;;;13.53;100.00;99180.55;1814318;77;20985;-60
2022/09/20 02:43:39;;;;;;;4.45;2.95;;;;;;;13.47;99.48;99181.39;1825798;77;22119;-61
2022/09/20 02:46:32;;;;;;;3.65;2.72;;;;;;;13.35;99.90;99179.88;1838461;77;21429;-61
2022/09/20 02:49:07;;;;;;;2.50;2.30;;;;;;;13.25;100.00;99182.69;1823275;77;21497;-61
2022/09/20 02:52:12;;;;;;;3.85;2.65;;;;;;;13.18;100.00;99186.16;1835816;76;21413;-61
2022/09/20 02:55:06;;;;;;;3.42;2.65;;;;;;;13.17;100.00;99187.13;1732139;80;21638;-61
2022/09/20 02:58:08;;;;;;;5.10;2.98;;;;;;;13.15;100.00;99182.89;1811758;77;22027;-60
2022/09/20 03:00:55;;;;;;;3.70;3.30;;;;;;;13.14;100.00;99180.70;1830205;77;20970;-62
2022/09/20 03:04:01;;;;;;;5.55;3.35;;;;;;;13.13;100.00;99180.78;1832619;77;21005;-60
2022/09/20 03:06:39;;;;;;;4.50;3.67;;;;;;;13.10;100.00;99182.31;1822034;77;20981;-60
2022/09/20 03:09:23;;;;;;;3.60;3.30;;;;;;;13.07;100.00;99184.64;1836239;77;21513;-62
2022/09/20 03:12:04;;;;;;;4.80;3.27;;;;;;;13.04;100.00;99179.57;1834631;77;21741;-59
2022/09/20 03:14:39;;;;;;;5.33;3.30;;;;;;;12.98;100.00;99183.91;1821633;77;21560;-61
2022/09/20 03:17:22;;;;;;;3.87;3.08;;;;;;;12.99;100.00;99185.11;1824089;76;21470;-62
2022/09/20 03:20:16;;;;;;;8.20;3.67;;;;;;;13.08;100.00;99196.08;1839002;77;21564;-63
2022/09/20 03:22:54;;;;;;;5.67;3.22;;;;;;;13.09;100.00;99194.66;1832363;77;21498;-63
2022/09/20 03:25:34;;;;;;;;;;;;;;;13.11;100.00;99190.14;1828067;77;21788;-61
2022/09/20 03:28:29;;;;;;;3.37;3.08;;;;;;;13.10;100.00;99198.98;1829655;77;20407;-61
2022/09/20 03:31:28;;;;;;;3.98;3.17;;;;;;;13.10;100.00;99204.75;1829318;77;20996;-61
2022/09/20 03:34:15;;;;;;;4.22;3.42;;;;;;;13.10;100.00;99198.98;1833400;77;21501;-61
2022/09/20 03:37:07;;;;;;;4.78;3.17;;;;;;;12.99;100.00;99201.42;1825644;77;21623;-61
2022/09/20 03:39:55;;;;;;;3.15;2.85;;;;;;;12.91;100.00;99203.20;1817301;76;21426;-62
2022/09/20 03:42:24;;;;;;;5.10;2.87;;;;;;;12.88;100.00;99207.33;1831441;76;21522;-62
2022/09/20 03:45:20;;;;;;;5.80;2.65;;;;;;;12.88;100.00;99209.13;1806663;77;21076;-61
2022/09/20 03:48:22;;;;;;;4.00;2.73;;;;;;;12.88;100.00;99211.77;1827246;77;21439;-61
2022/09/20 03:51:00;;;;;;;4.00;2.52;;;;;;;12.93;100.00;99214.98;1826511;77;21079;-61
2022/09/20 03:53:57;;;;;;;3.67;3.20;;;;;;;12.99;100.00;99217.25;1817721;77;21773;-61
2022/09/20 03:56:38;;;;;;;5.50;2.75;;;;;;;12.94;100.00;99217.98;1778677;78;21607;-61
2022/09/20 03:59:16;;;;;;;4.15;3.75;;;;;;;12.88;100.00;99217.04;1787746;78;20937;-61
2022/09/20 04:02:08;;;;;;;2.92;2.67;;;;;;;12.79;100.00;99216.66;1752159;80;21502;-61
2022/09/20 04:04:50;;;;;;;4.28;3.00;;;;;;;12.71;100.00;99214.91;1763670;80;21418;-60
2022/09/20 04:07:29;;;;;;;3.92;3.33;;;;;;;12.71;100.00;99213.59;1761501;79;21774;-61
2022/09/20 04:10:04;;;;;;;4.42;2.98;;;;;;;12.75;100.00;99211.19;1762231;78;21572;-61
2022/09/20 04:13:29;;;;;;;3.20;2.90;;;;;;;12.81;100.00;99213.94;1765030;80;21442;-61
2022/09/20 04:16:07;;;;;;;4.90;3.12;;;;;;;12.85;100.00;99218.08;1759251;80;21568;-63
2022/09/20 04:18:49;;;;;;;3.83;2.80;;;;;;;12.79;100.00;99216.66;1747822;81;21635;-61
2022/09/20 04:21:33;;;;;;;6.03;2.95;;;;;;;12.75;100.00;99224.81;1735506;79;21833;-61
2022/09/20 04:24:13;;;;;;;3.42;2.70;;;;;;;12.73;100.00;99220.95;1787465;78;21584;-62
2022/09/20 04:26:49;;;;;;;2.85;2.65;;;;;;;12.82;100.00;99228.33;1759365;80;21578;-61
2022/09/20 04:29:52;;;;;;;3.72;2.70;;;;;;;12.88;100.00;99225.80;1753464;80;21602;-61
2022/09/20 04:32:36;;;;;;;3.60;2.65;;;;;;;12.89;100.00;99226.67;1676261;83;21052;-61
2022/09/20 04:38:15;;;;;;;5.45;3.42;;;;;;;12.96;100.00;99229.30;1770220;79;21525;-61
2022/09/20 04:41:22;;;;;;;4.97;2.75;;;;;;;12.95;100.00;99233.73;1772335;79;21497;-61
2022/09/20 04:43:59;;;;;;;;;;;;;;;12.88;100.00;99240.31;1783922;79;21518;-61
2022/09/20 04:47:14;;;;;;;7.15;3.10;;;;;;;12.83;100.00;99246.34;1778977;79;20436;-61
2022/09/20 04:50:12;;;;;;;3.75;2.83;;;;;;;12.82;100.00;99243.31;1784957;79;21775;-63
2022/09/20 04:52:47;;;;;;;3.47;2.92;;;;;;;12.88;100.00;99246.06;1781148;79;21600;-63
2022/09/20 04:55:52;;;;;;;6.67;3.10;;;;;;;12.99;100.00;99241.00;1698932;82;20956;-61
2022/09/20 04:59:04;;;;;;;3.95;2.85;;;;;;;13.08;100.00;99233.02;1699381;83;21543;-61
2022/09/20 05:02:02;;;;;;;3.17;2.87;;;;;;;13.22;100.00;99232.58;1693615;83;21548;-63
2022/09/20 05:04:59;;;;;;;;;;;;;;;13.28;100.00;99229.16;1696541;83;21833;-64
2022/09/20 05:07:50;;;;;;;5.05;3.20;;;;;;;13.24;100.00;99232.45;1660554;84;20420;-62
2022/09/20 05:10:43;;;;;;;4.30;2.70;;;;;;;13.11;100.00;99233.69;1699688;82;21568;-61
2022/09/20 05:13:33;;;;;;;3.22;2.92;;;;;;;13.10;100.00;99226.70;1699480;83;21512;-62
2022/09/20 05:16:10;;;;;;;2.70;2.45;;;;;;;13.11;100.00;99232.38;1692892;82;21931;-61
2022/09/20 05:19:02;;;;;;;5.43;2.77;;;;;;;13.16;100.00;99232.92;1699102;84;21437;-61
2022/09/20 05:21:50;;;;;;;6.00;3.08;;;;;;;13.24;100.00;99235.09;1700480;82;21543;-61
2022/09/20 05:24:26;;;;;;;;;;;;;;;13.34;100.00;99231.48;1703039;83;21039;-62
2022/09/20 05:27:07;;;;;;;3.27;2.95;;;;;;;13.42;100.00;99228.74;1699708;83;20437;-62
2022/09/20 05:29:55;;;;;;;5.92;2.90;;;;;;;13.51;100.00;99226.02;1697674;82;21579;-61
2022/09/20 05:32:30;;;;;;;4.45;3.20;;;;;;;13.59;100.00;99222.90;1698600;83;21500;-61
2022/09/20 05:35:06;;;;;;;6.35;3.40;;;;;;;13.59;100.00;99222.42;1698334;83;21414;-61
2022/09/20 05:38:07;;;;;;;4.58;3.22;;;;;;;13.60;100.00;99223.30;1657684;82;21621;-61
2022/09/20 05:41:12;;;;;;;5.58;3.50;;;;;;;13.66;100.00;99227.34;1699294;83;21607;-61
2022/09/20 05:43:44;;;;;;;5.62;3.37;;;;;;;13.77;100.00;99224.41;1677993;83;21031;-61
2022/09/20 05:46:35;;;;;;;3.47;3.12;;;;;;;13.88;100.00;99220.22;1700288;83;21962;-60
2022/09/20 05:49:33;;;;;;;3.37;3.05;;;;;;;13.95;100.00;99222.38;1699450;82;21539;-61
2022/09/20 05:52:34;;;;;;;3.30;2.87;;;;;;;13.98;100.00;99222.19;1632456;85;21497;-61
2022/09/20 05:55:15;;;;;;;5.60;2.90;;;;;;;14.04;100.00;99223.60;1670095;84;21561;-61
2022/09/20 05:58:06;;;;;;;5.08;2.67;;;;;;;14.07;100.00;99224.73;1670048;82;21555;-61
2022/09/20 06:00:44;;;;;;;3.10;2.80;;;;;;;14.11;100.00;99224.04;1672302;84;21812;-62
2022/09/20 06:03:54;;;;;;;3.37;2.77;;;;;;;14.15;100.00;99229.53;1666247;84;21585;-61
2022/09/20 06:06:26;;;;;;;3.33;2.80;;;;;;;14.17;100.00;99226.31;1670640;84;21563;-61
2022/09/20 06:09:35;;;;;;;5.03;2.80;;;;;;;14.15;100.00;99226.41;1669576;84;21045;-63
2022/09/20 06:12:34;;;;;;;4.72;2.65;;;;;;;14.16;100.00;99221.48;1667207;84;21609;-63
2022/09/20 06:15:54;;;;;;;3.30;2.70;;;;;;;14.15;100.00;99224.24;1668251;84;21998;-61
2022/09/20 06:18:41;;;;;;;4.05;2.40;;;;;;;14.16;100.00;99225.92;1672275;84;21557;-62
2022/09/20 06:21:53;;;;;;;3.70;2.10;;;;;;;14.18;100.00;99220.93;1672557;84;21579;-63
2022/09/20 06:24:36;;;;;;;3.72;2.25;;;;;;;14.26;100.00;99224.40;1672406;84;21447;-64
2022/09/20 06:27:07;;;;;;;3.10;2.60;;;;;;;14.30;100.00;99223.25;1680775;84;21556;-64
2022/09/20 06:29:39;;;;;;;2.47;2.10;;;;;;;14.35;100.00;99225.13;1666029;85;21737;-62
2022/09/20 06:32:07;;;;;;;5.72;2.25;;;;;;;14.46;100.00;99221.76;1666176;84;21060;-63
2022/09/20 06:34:35;;;;;;;3.10;2.47;;;;;;;14.54;100.00;99217.28;1632811;85;21029;-64
2022/09/20 06:43:18;;;;;;;5.33;2.60;;;;;;;14.58;100.00;99228.94;1669134;84;22031;-69
2022/09/20 06:45:44;;;;;;;5.67;3.02;;;;;;;14.55;100.00;99222.97;1671914;84;21589;-68
2022/09/20 06:50:59;;;;;;;2.37;2.17;;;;;;;14.11;100.00;99229.33;1768272;79;22542;-64
2022/09/20 06:53:29;;;;;;;3.22;2.22;;;;;;;14.56;100.00;99217.58;1736393;81;21526;-65
2022/09/20 06:55:56;;;;;;;2.80;2.60;;;;;;;14.64;100.00;99228.17;1731315;80;21816;-67
2022/09/20 06:58:23;;;;;;;4.85;2.90;;;;;;;14.73;100.00;99221.78;1734564;80;22364;-65
2022/09/20 07:00:49;;;;;;;7.58;2.75;;;;;;;14.83;100.00;99215.87;1743960;80;21408;-67
2022/09/20 07:03:18;;;;;;;4.55;2.35;;;;;;;14.88;100.00;99224.33;1732885;81;21632;-66
2022/09/20 07:05:45;;;;;;;2.37;2.10;;;;;;;14.90;100.00;99216.69;1737499;80;21546;-68
2022/09/20 07:08:12;;;;;;;3.22;2.37;;;;;;;14.93;100.00;99210.32;1733242;81;21942;-69
2022/09/20 07:10:40;;;;;;;4.83;2.62;;;;;;;14.94;100.00;99200.13;1732537;80;21391;-67
2022/09/20 07:13:10;;;;;;;2.98;2.15;;;;;;;14.97;100.00;99194.59;1734472;80;21068;-66
2022/09/20 07:15:36;;;;;;;3.83;2.50;;;;;;;15.04;100.00;99205.63;1729771;80;21483;-67
2022/09/20 07:18:04;;;;;;;2.45;1.90;;;;;;;15.10;100.00;99226.39;1733559;81;21601;-67
2022/09/20 07:20:31;;;;;;;3.77;2.13;;;;;;;15.13;100.00;99234.97;1733958;81;21878;-68
2022/09/20 07:22:58;;;;;;;2.47;2.15;;;;;;;15.18;100.00;99229.34;1736979;80;21513;-67
2022/09/20 07:25:25;;;;;;;2.47;2.27;;;;;;;15.26;100.00;99227.04;1738882;80;21545;-67
2022/09/20 07:27:51;;;;;;;2.72;2.42;;;;;;;15.33;100.00;99227.00;1738367;81;22246;-68
2022/09/20 07:30:18;;;;;;;2.92;2.45;;;;;;;15.42;100.00;99225.48;1730548;79;21596;-66
2022/09/20 07:32:45;;;;;;;2.87;2.27;;;;;;;15.51;100.00;99222.69;1737134;80;21850;-69
2022/09/20 07:35:12;;;;;;;3.62;2.35;;;;;;;15.62;100.00;99224.59;1738026;80;21495;-70
2022/09/20 07:37:40;;;;;;;3.70;2.47;;;;;;;15.68;100.00;99224.16;1734764;80;21463;-69
2022/09/20 07:40:08;;;;;;;7.42;2.90;;;;;;;15.77;100.00;99218.23;1733499;80;21695;-70
2022/09/20 07:42:36;;;;;;;5.58;3.62;;;;;;;15.87;100.00;99226.38;1738025;80;21523;-68
2022/09/20 07:45:03;;;;;;;6.25;3.45;;;;;;;15.86;100.00;99220.23;1733481;80;21801;-69
2022/09/20 07:47:34;;;;;;;6.62;3.27;;;;;;;15.82;100.00;99220.06;1742708;80;21419;-68
2022/09/20 07:50:02;;;;;;;8.23;3.62;;;;;;;15.80;100.00;99223.78;1727379;81;21436;-68
2022/09/20 07:52:28;;;;;;;6.10;3.02;;;;;;;15.80;100.00;99218.48;1709685;81;21476;-68
2022/09/20 07:54:55;;;;;;;7.55;4.12;;;;;;;15.82;100.00;99223.20;1716764;82;21617;-69
2022/09/20 07:57:22;;;;;;;9.35;3.52;;;;;;;15.82;100.00;99221.38;1724252;80;21812;-69
2022/09/20 07:59:49;;;;;;;4.72;2.95;;;;;;;15.81;100.00;99222.84;1722398;81;21599;-68
2022/09/20 08:02:16;;;;;;;6.10;3.70;;;;;;;15.83;100.00;99219.12;1710364;81;21512;-69
2022/09/20 08:04:42;;;;;;;6.85;3.55;;;;;;;15.88;100.00;99225.41;1712925;80;21602;-69
2022/09/20 08:07:09;;;;;;;4.53;3.00;;;;;;;15.95;100.00;99227.98;1728614;81;21724;-69
2022/09/20 08:09:36;;;;;;;5.78;2.87;;;;;;;15.99;100.00;99225.48;1711924;81;21823;-68
2022/09/20 08:12:04;;;;;;;4.42;2.92;;;;;;;15.96;100.00;99223.06;1721265;81;21576;-68
2022/09/20 08:14:31;;;;;;;7.83;3.85;;;;;;;15.95;100.00;99223.55;1723602;81;21427;-69
2022/09/20 08:16:59;;;;;;;5.97;3.37;;;;;;;15.95;100.00;99229.31;1730527;81;21504;-69
2022/09/20 08:19:26;;;;;;;6.27;3.27;;;;;;;15.95;100.00;99230.64;1721942;81;21006;-69
2022/09/20 08:21:53;;;;;;;7.63;3.33;;;;;;;15.96;100.00;99223.91;1714728;80;21849;-69
2022/09/20 08:24:20;;;;;;;7.65;3.33;;;;;;;15.97;100.00;99222.09;1721352;81;21825;-69
2022/09/20 08:26:47;;;;;;;11.00;3.60;;;;;;;15.96;100.00;99221.74;1723564;81;21591;-66
2022/09/20 08:29:14;;;;;;;9.63;3.35;;;;;;;15.93;100.00;99225.44;1726470;81;21543;-69
2022/09/20 08:31:41;;;;;;;9.70;3.27;;;;;;;15.90;100.00;99221.70;1715634;82;21096;-69
2022/09/20 08:34:10;;;;;;;7.78;3.62;;;;;;;15.95;100.00;99224.88;1721641;82;22197;-69
2022/09/20 08:36:40;;;;;;;8.18;3.58;;;;;;;16.01;100.00;99218.29;1725526;80;21515;-69
2022/09/20 08:39:08;;;;;;;7.25;3.33;;;;;;;16.07;100.00;99218.33;1710013;82;21507;-68
2022/09/20 08:41:40;;;;;;;4.90;3.30;;;;;;;16.13;100.00;99212.08;1713118;81;21506;-68
2022/09/20 08:44:24;;;;;;;7.35;3.25;;;;;;;16.13;100.00;99212.08;1724079;81;21600;-66
2022/09/20 08:47:09;;;;;;;7.03;3.37;;;;;;;16.22;100.00;99215.02;1707682;81;21820;-68
2022/09/20 08:49:36;;;;;;;5.85;3.02;;;;;;;16.17;100.00;99215.36;1719733;81;21239;-66
2022/09/20 08:52:04;;;;;;;8.43;2.80;;;;;;;16.10;100.00;99215.44;1713469;81;21423;-67
2022/09/20 08:54:35;;;;;;;6.70;3.50;;;;;;;15.99;100.00;99210.90;1728028;81;21463;-67
2022/09/20 08:57:05;;;;;;;3.87;2.85;;;;;;;15.95;100.00;99214.27;1721731;81;21491;-68
2022/09/20 08:59:33;;;;;;;3.15;2.65;;;;;;;15.99;100.00;99210.06;1725595;81;21993;-70
2022/09/20 09:02:00;;;;;;;3.33;2.90;;;;;;;16.07;100.00;99217.00;1727560;80;21517;-68
2022/09/20 09:04:36;;;;;;;4.55;2.75;;;;;;;16.09;100.00;99216.41;1730677;80;21616;-67
2022/09/20 09:07:02;;;;;;;3.12;2.70;;;;;;;16.12;100.00;99218.36;1737612;80;21487;-67
2022/09/20 09:09:31;;;;;;;4.87;3.15;;;;;;;16.06;100.00;99220.11;1737603;80;21100;-67
2022/09/20 09:11:57;;;;;;;3.27;2.40;;;;;;;15.99;100.00;99209.57;1732077;80;21760;-67
2022/09/20 09:14:50;;;;;;;3.35;3.00;;;;;;;15.95;100.00;99214.73;1738847;80;21518;-68
2022/09/20 09:17:25;;;;;;;7.35;2.90;;;;;;;15.94;100.00;99220.52;1728246;81;21545;-67
2022/09/20 09:19:56;;;;;;;3.72;2.92;;;;;;;15.99;100.00;99212.71;1725715;81;21463;-68
2022/09/20 09:22:44;;;;;;;3.27;2.72;;;;;;;16.02;100.00;99212.02;1733801;81;21593;-67
2022/09/20 09:25:33;;;;;;;3.58;3.00;;;;;;;15.93;100.00;99218.81;1734259;81;21765;-67
2022/09/20 09:28:05;;;;;;;5.85;2.87;;;;;;;15.90;100.00;99210.27;1726533;80;25633;-67
2022/09/20 09:30:35;;;;;;;4.33;2.83;;;;;;;15.90;100.00;99211.09;1723401;81;21546;-68
2022/09/20 09:33:26;;;;;;;3.60;3.12;;;;;;;15.86;100.00;99210.09;1737770;80;21498;-66
2022/09/20 09:36:16;;;;;;;3.35;2.83;;;;;;;15.86;100.00;99208.30;1728534;81;21581;-67
2022/09/20 09:38:44;;;;;;;4.37;3.00;;;;;;;15.84;100.00;99211.55;1729966;80;21592;-68
2022/09/20 09:41:26;;;;;;;6.72;3.00;;;;;;;15.85;100.00;99211.06;1732678;80;21512;-69
2022/09/20 09:44:09;;;;;;;3.02;2.72;;;;;;;15.87;100.00;99207.82;1734088;80;20955;-69
2022/09/20 09:46:38;;;;;;;5.37;2.98;;;;;;;15.88;100.00;99204.19;1739781;80;21495;-67
2022/09/20 09:49:21;;;;;;;4.55;3.40;;;;;;;15.90;100.00;99205.80;1726682;81;20998;-68
2022/09/20 09:52:14;;;;;;;3.42;2.62;;;;;;;15.89;100.00;99199.27;1734536;80;22007;-66
2022/09/20 09:54:47;;;;;;;2.85;2.58;;;;;;;15.92;100.00;99199.06;1737240;78;21574;-68
2022/09/20 09:57:41;;;;;;;3.02;2.72;;;;;;;15.90;100.00;99198.33;1735124;81;21033;-68
2022/09/20 10:00:18;;;;;;;3.50;3.20;;;;;;;15.87;100.00;99187.45;1729075;81;21576;-67
2022/09/20 10:03:23;;;;;;;3.67;2.52;;;;;;;15.87;100.00;99190.59;1729569;80;21633;-70
2022/09/20 10:06:08;;;;;;;3.27;2.62;;;;;;;15.88;100.00;99187.83;1732242;81;21894;-68
2022/09/20 10:09:20;;;;;;;3.52;2.87;;;;;;;15.92;100.00;99190.63;1733118;81;21423;-68
2022/09/20 10:12:22;;;;;;;4.60;2.35;;;;;;;16.01;100.00;99189.58;1730468;80;21041;-69
2022/09/20 10:15:00;;;;;;;4.05;2.30;;;;;;;16.09;100.00;99196.03;1729158;81;21471;-69
2022/09/20 10:17:59;;;;;;;2.98;2.37;;;;;;;16.17;100.00;99191.98;1705904;81;21562;-67
2022/09/20 10:20:52;;;;;;;2.92;1.95;;;;;;;16.19;100.00;99190.06;1733306;81;21860;-66
2022/09/20 10:23:41;;;;;;;3.80;2.20;;;;;;;16.20;100.00;99187.30;1722933;81;21521;-68
2022/09/20 10:26:29;;;;;;;1.87;1.60;;;;;;;16.04;100.00;99178.77;1740961;80;21041;-70
2022/09/20 10:29:25;;;;;;;2.17;1.95;;;;;;;15.95;100.00;99175.84;1739525;80;21521;-68
2022/09/20 10:32:00;;;;;;;1.72;1.57;;;;;;;15.92;100.00;99179.19;1725297;81;21466;-68
2022/09/20 10:35:03;;;;;;;1.98;1.45;;;;;;;15.92;100.00;99180.51;1732353;80;21747;-69
2022/09/20 10:38:14;;;;;;;2.47;1.62;;;;;;;15.98;100.00;99181.38;1726677;80;21510;-68
2022/09/20 10:44:33;;;;;;;2.33;1.70;;;;;;;15.85;100.00;99164.19;1736111;80;21525;-66
2022/09/20 10:47:14;;;;;;;2.08;1.32;;;;;;;15.74;100.00;99160.14;1737321;81;21506;-64
2022/09/20 10:50:02;;;;;;;1.10;1.00;;;;;;;15.67;100.00;99158.84;1738681;80;21554;-63
2022/09/20 10:52:43;;;;;;;1.32;1.22;;;;;;;15.54;100.00;99154.44;1724677;81;21652;-63
2022/09/20 10:55:33;;;;;;;1.17;1.10;;;;;;;15.51;100.00;99151.99;1730554;80;21418;-62
2022/09/20 10:58:36;;;;;;;1.15;1.05;;;;;;;15.53;100.00;99156.70;1738648;80;21597;-63
2022/09/20 11:01:30;;;;;;;2.10;0.80;;;;;;;15.54;100.00;99155.77;1728210;80;21553;-62
2022/09/20 11:04:35;;;;;;;1.60;1.07;;;;;;;15.55;100.00;99151.30;1731126;80;22018;-62
2022/09/20 11:07:38;;;;;;;1.67;1.00;;;;;;;15.56;100.00;99145.89;1731867;81;21554;-62
2022/09/20 11:10:14;;;;;;;1.85;1.10;;;;;;;15.53;100.00;99149.23;1727628;81;21664;-63
2022/09/20 11:12:52;;;;;;;2.17;1.15;;;;;;;15.45;100.00;99152.92;1729203;81;21604;-63
2022/09/20 11:15:27;;;;;;;1.30;1.20;;;;;;;15.42;100.00;99154.45;1738200;81;21542;-62
2022/09/20 11:18:22;;;;;;;1.50;1.40;;;;;;;15.47;100.00;99153.66;1726839;81;21526;-63
2022/09/20 11:21:01;;;;;;;1.77;1.20;;;;;;;15.45;100.00;99155.08;1727314;81;21439;-64
2022/09/20 11:23:43;;;;;;;1.32;1.22;;;;;;;15.37;100.00;99154.30;1722141;81;21526;-63
2022/09/20 11:26:13;;;;;;;1.67;1.15;;;;;;;15.36;100.00;99152.59;1724554;81;21507;-65
2022/09/20 11:28:47;;;;;;;1.07;0.98;;;;;;;15.36;100.00;99155.73;1721245;80;21629;-65
2022/09/20 11:31:36;;;;;;;0.82;0.82;;;;;;;15.35;100.00;99156.67;1734265;81;21910;-65
2022/09/20 11:34:08;;;;;;;1.35;1.10;;;;;;;15.30;100.00;99157.50;1732630;81;21562;-64
2022/09/20 11:36:41;;;;;;;1.02;0.82;;;;;;;15.34;100.00;99155.83;1734550;81;21045;-65
2022/09/20 11:39:41;;;;;;;0.85;0.85;;;;;;;15.33;100.00;99150.64;1734844;81;21581;-65
2022/09/20 11:42:15;;;;;;;1.40;1.20;;;;;;;15.28;100.00;99154.95;1730959;81;21652;-64
2022/09/20 11:44:42;;;;;;;1.22;0.90;;;;;;;15.28;100.00;99150.14;1734548;81;21905;-64
2022/09/20 11:47:29;;;;;;;2.80;1.20;;;;;;;15.31;100.00;99147.25;1733064;80;21609;-64
2022/09/20 11:50:38;;;;;;;3.87;1.90;;;;;;;15.30;100.00;99149.06;1731378;81;21029;-64
2022/09/20 11:53:34;;;;;;;1.52;1.17;;;;;;;15.24;100.00;99140.69;1718423;80;21683;-65
2022/09/20 11:56:23;;;;;;;0.98;0.98;;;;;;;15.18;100.00;99147.26;1716991;81;21590;-65
2022/09/20 11:58:55;;;;;;;3.15;1.22;;;;;;;15.13;100.00;99146.27;1728840;81;21758;-64
2022/09/20 12:01:35;;;;;;;1.40;1.27;;;;;;;15.16;100.00;99144.74;1727276;81;21459;-65
2022/09/20 12:04:24;;;;;;;2.70;1.10;;;;;;;15.20;100.00;99150.67;1726566;81;21523;-66
2022/09/20 12:07:09;;;;;;;1.67;1.50;;;;;;;15.14;100.00;99140.03;1736125;80;21549;-64
2022/09/20 12:09:40;;;;;;;1.67;1.32;;;;;;;15.15;100.00;99141.71;1731839;80;21518;-65
2022/09/20 12:12:27;;;;;;;2.33;1.52;;;;;;;15.19;100.00;99144.51;1729164;81;21791;-63
2022/09/20 12:14:55;;;;;;;1.67;1.57;;;;;;;15.25;100.00;99139.75;1726046;81;27490;-62
2022/09/20 12:17:51;;;;;;;1.82;1.20;;;;;;;15.29;100.00;99146.03;1729554;81;21562;-62
2022/09/20 12:20:43;;;;;;;2.27;1.70;;;;;;;15.31;100.00;99144.60;1729756;80;21018;-62
2022/09/20 12:23:42;;;;;;;1.82;1.67;;;;;;;15.36;100.00;99138.52;1729751;81;21604;-62
2022/09/20 12:26:23;;;;;;;1.70;1.60;;;;;;;15.41;100.00;99127.58;1734590;81;21624;-62
2022/09/20 12:28:57;;;;;;;3.67;1.70;;;;;;;15.38;100.00;99132.63;1726165;81;21437;-61
2022/09/20 12:31:32;;;;;;;2.20;2.00;;;;;;;15.25;100.00;99127.83;1724445;80;21654;-61
2022/09/20 12:34:14;;;;;;;1.95;1.80;;;;;;;15.16;100.00;99118.72;1730873;80;21470;-62
2022/09/20 12:36:47;;;;;;;1.72;1.60;;;;;;;15.08;100.00;99118.42;1740045;81;22523;-62
2022/09/20 12:39:17;;;;;;;3.05;1.70;;;;;;;15.08;100.00;99111.31;1723680;81;21554;-61
2022/09/20 12:41:58;;;;;;;2.42;1.60;;;;;;;15.11;100.00;99110.27;1735594;81;21531;-62
2022/09/20 12:44:54;;;;;;;2.60;2.30;;;;;;;15.13;100.00;99109.20;1730655;81;21656;-61
2022/09/20 12:47:36;;;;;;;3.42;1.70;;;;;;;15.16;100.00;99116.07;1730802;81;21468;-62
2022/09/20 12:52:56;;;;;;;2.92;2.27;;;;;;;15.14;100.00;99116.66;1719128;81;21423;-63
2022/09/20 12:55:40;;;;;;;2.90;2.70;;;;;;;15.08;100.00;99121.91;1728714;80;21128;-61